Terminal Aerodrome Forecast
Issued by NWS Sterling, VA

Current Version | Previous Version | Graphics & Text | Print | Product List | Glossary On
Versions: 1 2 3 4 5 6 7 8 9 10 11 12 13 14 15 16 17 18 19 20 21 22 23 24 25
000
FTUS41 KLWX 010900 AAB
TAFIAD
TAF AMD
KIAD 010905Z 0109/0212 07004KT 5SM -RA BR SCT006 BKN010 OVC080
     FM011000 VRB03KT 5SM BR SCT004 OVC015
     FM011200 VRB03KT 4SM BR BKN005
     FM011300 06004KT P6SM BKN020
     FM011500 05004KT P6SM BKN045
     FM012000 VRB03KT P6SM SCT040 SCT150
     FM020600 VRB03KT P6SM SCT025 BKN060=

USA.gov is the U.S. government's official web portal to all federal, state and local government web resources and services.